createdAt,value
2019-05-01T00:00:57.205Z,72.33
2019-05-01T00:03:33.478Z,75.50
2019-05-01T00:06:16.327Z,69.37
2019-05-01T00:08:49.975Z,73.00
2019-05-01T00:11:18.915Z,70.80
2019-05-01T00:13:47.350Z,72.73
2019-05-01T00:16:16.159Z,71.00
2019-05-01T00:18:47.587Z,71.40
2019-05-01T00:21:16.191Z,72.13
2019-05-01T00:23:44.994Z,69.50
2019-05-01T00:26:13.571Z,65.43
2019-05-01T00:28:41.851Z,68.60
2019-05-01T00:31:10.182Z,68.43
2019-05-01T00:33:38.914Z,65.90
2019-05-01T00:36:07.215Z,60.83
2019-05-01T00:38:35.499Z,64.47
2019-05-01T00:41:03.918Z,66.17
2019-05-01T00:43:32.233Z,60.70
2019-05-01T00:46:00.601Z,65.97
2019-05-01T00:48:28.897Z,69.00
2019-05-01T00:50:57.468Z,62.40
2019-05-01T00:53:26.050Z,60.13
2019-05-01T00:55:56.275Z,59.77
2019-05-01T00:58:44.568Z,61.90
2019-05-01T01:01:14.491Z,59.53
2019-05-01T01:03:42.859Z,60.23
2019-05-01T01:06:11.803Z,59.70
2019-05-01T01:08:40.092Z,60.83
2019-05-01T01:11:08.782Z,58.63
2019-05-01T01:13:37.168Z,53.83
2019-05-01T01:16:05.786Z,49.47
2019-05-01T01:18:34.079Z,48.40
2019-05-01T01:21:02.358Z,53.20
2019-05-01T01:23:32.233Z,63.87
2019-05-01T01:26:00.601Z,63.93
2019-05-01T01:28:30.547Z,53.57
2019-05-01T01:30:59.170Z,53.60
2019-05-01T01:33:27.610Z,56.80
2019-05-01T01:35:55.970Z,46.63
2019-05-01T01:38:24.339Z,55.80
2019-05-01T01:40:53.047Z,59.30
2019-05-01T01:43:40.034Z,62.30
2019-05-01T01:46:16.474Z,66.30
2019-05-01T01:48:44.777Z,60.23
2019-05-01T01:51:13.101Z,59.73
2019-05-01T01:53:41.455Z,65.47
2019-05-01T01:56:10.402Z,63.83
2019-05-01T01:58:38.730Z,60.67
2019-05-01T02:01:24.796Z,65.60
2019-05-01T02:04:10.681Z,63.17
2019-05-01T02:06:39.318Z,59.10
2019-05-01T02:09:07.931Z,54.70
2019-05-01T02:11:36.235Z,50.00
2019-05-01T02:14:04.530Z,46.93
2019-05-01T02:16:33.175Z,49.37
2019-05-01T02:19:01.755Z,57.50
2019-05-01T02:21:30.346Z,66.03
2019-05-01T02:23:58.924Z,63.07
2019-05-01T02:26:28.855Z,63.83
2019-05-01T02:29:07.925Z,62.90
2019-05-01T02:31:38.153Z,62.67
2019-05-01T02:34:06.676Z,62.57
2019-05-01T02:36:34.978Z,58.27
2019-05-01T02:39:05.182Z,55.40
2019-05-01T02:41:35.182Z,59.07
2019-05-01T02:44:09.719Z,53.20
2019-05-01T02:46:37.992Z,53.97
2019-05-01T02:49:09.720Z,45.20
2019-05-01T02:51:38.273Z,48.83
2019-05-01T02:54:06.571Z,54.60
2019-05-01T02:56:36.930Z,57.67
2019-05-01T02:59:05.926Z,53.83
2019-05-01T03:01:46.506Z,53.20
2019-05-01T03:04:04.804Z,59.30
2019-05-01T03:06:33.138Z,54.27
2019-05-01T03:09:01.800Z,51.77
2019-05-01T03:11:30.331Z,55.30
2019-05-01T03:13:58.971Z,53.50
2019-05-01T03:16:27.254Z,52.73
2019-05-01T03:18:59.832Z,56.73
2019-05-01T03:21:35.983Z,51.27
2019-05-01T03:24:06.202Z,49.80
2019-05-01T03:26:35.398Z,49.63
2019-05-01T03:29:05.230Z,45.57
2019-05-01T03:31:33.795Z,47.17
2019-05-01T03:34:02.390Z,47.40
2019-05-01T03:36:30.748Z,47.63
2019-05-01T03:38:59.122Z,49.03
2019-05-01T03:41:27.754Z,47.30
2019-05-01T03:43:56.503Z,45.97
2019-05-01T03:46:25.374Z,43.70
2019-05-01T03:48:53.665Z,43.37
2019-05-01T03:51:21.968Z,39.33
2019-05-01T03:53:50.548Z,42.73
2019-05-01T03:56:19.178Z,44.87
2019-05-01T03:58:47.821Z,43.00
2019-05-01T04:01:20.556Z,41.13
2019-05-01T04:03:51.015Z,41.17
2019-05-01T04:06:19.304Z,39.00
2019-05-01T04:08:47.678Z,40.40
2019-05-01T04:11:16.210Z,38.87
2019-05-01T04:13:44.515Z,36.27
2019-05-01T04:16:13.130Z,36.87
2019-05-01T04:18:41.443Z,39.17
2019-05-01T04:21:09.916Z,36.57
2019-05-01T04:23:38.626Z,38.87
2019-05-01T04:26:07.897Z,36.30
2019-05-01T04:28:47.095Z,38.90
2019-05-01T04:31:19.199Z,36.37
2019-05-01T04:33:55.531Z,38.00
2019-05-01T04:36:25.747Z,35.43
2019-05-01T04:38:54.298Z,35.47
2019-05-01T04:41:22.576Z,33.93
2019-05-01T04:43:51.291Z,35.47
2019-05-01T04:46:19.753Z,35.30
2019-05-01T04:48:48.424Z,33.67
2019-05-01T04:51:16.717Z,35.20
2019-05-01T04:53:45.423Z,34.87
2019-05-01T04:56:14.009Z,32.40
2019-05-01T04:58:42.591Z,32.67
2019-05-01T05:01:11.318Z,33.80
2019-05-01T05:03:39.958Z,36.63
2019-05-01T05:06:08.314Z,34.37
2019-05-01T05:08:37.031Z,32.30
2019-05-01T05:11:10.318Z,32.30
2019-05-01T05:13:40.246Z,30.13
2019-05-01T05:16:18.942Z,34.30
2019-05-01T05:18:47.549Z,31.43
2019-05-01T05:21:15.871Z,31.97
2019-05-01T05:23:44.398Z,35.67
2019-05-01T05:26:12.686Z,33.73
2019-05-01T05:28:40.999Z,34.27
2019-05-01T05:31:09.643Z,34.90
2019-05-01T05:33:38.235Z,35.53
2019-05-01T05:36:07.016Z,35.17
2019-05-01T05:38:42.784Z,33.60
2019-05-01T05:41:13.598Z,34.47
2019-05-01T05:43:41.914Z,39.00
2019-05-01T05:46:10.203Z,44.43
2019-05-01T05:48:38.474Z,50.20
2019-05-01T05:51:17.750Z,52.63
2019-05-01T05:53:54.549Z,51.53
2019-05-01T05:56:24.768Z,50.00
2019-05-01T05:58:57.426Z,47.70
2019-05-01T06:01:33.134Z,48.07
2019-05-01T06:04:19.465Z,45.93
2019-05-01T06:06:58.579Z,45.17
2019-05-01T06:09:29.378Z,44.67
2019-05-01T06:11:59.582Z,47.07
2019-05-01T06:14:36.870Z,45.80
2019-05-01T06:17:12.839Z,44.33
2019-05-01T06:19:55.334Z,41.87
2019-05-01T06:22:34.883Z,48.20
2019-05-01T06:25:21.561Z,47.37
2019-05-01T06:27:38.297Z,52.37
2019-05-01T06:30:11.108Z,52.40
2019-05-01T06:32:43.032Z,53.43
2019-05-01T06:35:12.039Z,50.60
2019-05-01T06:38:02.310Z,50.00
2019-05-01T06:40:44.137Z,50.80
2019-05-01T06:43:30.932Z,47.77
2019-05-01T06:46:13.058Z,49.53
2019-05-01T06:48:48.929Z,44.87
2019-05-01T06:51:35.695Z,53.13
2019-05-01T06:54:11.366Z,87.67
2019-05-01T06:56:38.502Z,71.37
2019-05-01T06:59:07.193Z,79.80
2019-05-01T07:04:06.743Z,78.60
2019-05-01T07:06:35.806Z,76.63
2019-05-01T07:09:07.023Z,78.13
2019-05-01T07:11:37.902Z,69.33
2019-05-01T07:14:10.822Z,74.23
2019-05-01T07:16:38.045Z,74.93
2019-05-01T07:19:08.650Z,75.50
2019-05-01T07:21:37.438Z,95.13
2019-05-01T07:24:06.086Z,104.33
2019-05-01T07:26:34.441Z,101.57
2019-05-01T07:29:16.918Z,97.40
2019-05-01T07:31:45.220Z,88.27
2019-05-01T07:34:16.639Z,94.47
2019-05-01T07:36:45.563Z,97.90
2019-05-01T07:39:15.918Z,123.33
2019-05-01T07:41:44.385Z,100.20
2019-05-01T07:44:17.534Z,104.90
2019-05-01T07:46:54.070Z,96.87
2019-05-01T07:49:43.406Z,106.60
2019-05-01T07:52:12.515Z,97.73
2019-05-01T07:54:42.397Z,90.07
2019-05-01T07:57:11.834Z,90.30
2019-05-01T07:59:40.467Z,94.73
2019-05-01T08:02:10.693Z,86.87
2019-05-01T08:04:39.277Z,86.63
2019-05-01T08:07:07.591Z,84.67
2019-05-01T08:09:35.961Z,78.67
2019-05-01T08:12:04.755Z,78.20
2019-05-01T08:14:33.407Z,87.90
2019-05-01T08:17:01.695Z,79.93
2019-05-01T08:19:39.214Z,87.20
2019-05-01T08:22:12.848Z,86.50
2019-05-01T08:24:41.251Z,85.77
2019-05-01T08:27:11.488Z,78.97
2019-05-01T08:29:58.802Z,76.63
2019-05-01T08:32:33.918Z,76.33
2019-05-01T08:35:03.049Z,76.90
2019-05-01T08:37:31.407Z,78.47
2019-05-01T08:40:00.020Z,72.10
2019-05-01T08:42:28.471Z,94.43
2019-05-01T08:45:05.189Z,85.40
2019-05-01T08:47:33.130Z,84.70
2019-05-01T08:50:03.095Z,79.60
2019-05-01T08:52:31.476Z,71.73
2019-05-01T08:55:04.344Z,69.93
2019-05-01T08:57:34.525Z,76.90
2019-05-01T09:00:01.957Z,86.23
2019-05-01T09:02:30.579Z,87.47
2019-05-01T09:05:02.362Z,75.40
2019-05-01T09:07:28.915Z,80.40
2019-05-01T09:09:57.281Z,70.07
2019-05-01T09:12:25.578Z,57.43
2019-05-01T09:14:53.872Z,52.40
2019-05-01T09:17:22.482Z,106.43
2019-05-01T09:19:51.091Z,114.90
2019-05-01T09:22:19.560Z,98.43
2019-05-01T09:24:48.942Z,101.17
2019-05-01T09:27:24.066Z,101.77
2019-05-01T09:29:53.378Z,95.10
2019-05-01T09:32:22.016Z,96.77
2019-05-01T09:34:50.757Z,89.03
2019-05-01T09:37:19.146Z,88.40
2019-05-01T09:39:47.610Z,81.43
2019-05-01T09:42:22.681Z,97.27
2019-05-01T09:44:46.631Z,96.07
2019-05-01T09:47:15.086Z,100.93
2019-05-01T09:49:43.790Z,91.63
2019-05-01T09:52:14.016Z,86.80
2019-05-01T09:54:46.740Z,90.90
2019-05-01T09:57:14.589Z,79.87
2019-05-01T09:59:43.252Z,77.50
2019-05-01T10:02:13.214Z,78.33
2019-05-01T10:04:41.855Z,74.07
2019-05-01T10:07:10.613Z,71.10
2019-05-01T10:09:39.220Z,68.50
2019-05-01T10:12:11.718Z,79.97
2019-05-01T10:14:37.879Z,94.77
2019-05-01T10:17:06.817Z,103.53
2019-05-01T10:19:35.727Z,74.80
2019-05-01T10:22:04.227Z,76.63
2019-05-01T10:24:37.500Z,72.97
2019-05-01T10:27:04.538Z,77.50
2019-05-01T10:29:43.280Z,80.57
2019-05-01T10:32:28.246Z,87.40
2019-05-01T10:35:07.280Z,77.60
2019-05-01T10:37:35.609Z,75.30
2019-05-01T10:40:05.952Z,76.03
2019-05-01T10:42:34.530Z,85.37
2019-05-01T10:45:03.358Z,97.47
2019-05-01T10:47:31.730Z,109.70
2019-05-01T10:50:00.524Z,121.77
2019-05-01T10:52:30.714Z,109.43
2019-05-01T10:54:59.294Z,100.13
2019-05-01T10:57:27.880Z,94.33
2019-05-01T10:59:56.183Z,89.03
2019-05-01T11:02:24.839Z,103.03
2019-05-01T11:04:53.432Z,90.10
2019-05-01T11:07:22.110Z,110.93
2019-05-01T11:09:50.695Z,112.90
2019-05-01T11:12:19.404Z,127.50
2019-05-01T11:14:48.504Z,118.30
2019-05-01T11:17:17.171Z,111.77
2019-05-01T11:19:45.771Z,105.80
2019-05-01T11:22:14.137Z,97.33
2019-05-01T11:24:42.489Z,98.23
2019-05-01T11:27:11.088Z,91.13
2019-05-01T11:29:39.387Z,84.50
2019-05-01T11:32:09.319Z,78.83
2019-05-01T11:34:51.023Z,75.50
2019-05-01T11:37:21.020Z,80.60
2019-05-01T11:39:57.172Z,81.70
2019-05-01T11:42:25.736Z,72.60
2019-05-01T11:44:54.027Z,77.20
2019-05-01T11:47:22.815Z,68.73
2019-05-01T11:49:51.387Z,63.87
2019-05-01T11:52:19.674Z,53.37
2019-05-01T11:54:48.054Z,50.83
2019-05-01T11:57:16.371Z,56.40
2019-05-01T11:59:44.652Z,55.23
2019-05-01T12:02:12.938Z,47.10
2019-05-01T12:04:41.564Z,47.77
2019-05-01T12:07:10.138Z,45.07
2019-05-01T12:09:38.723Z,50.57
2019-05-01T12:12:11.514Z,44.80
2019-05-01T12:14:40.079Z,42.70
2019-05-01T12:17:22.247Z,46.10
2019-05-01T12:19:50.888Z,43.43
2019-05-01T12:22:19.276Z,43.80
2019-05-01T12:24:47.573Z,39.77
2019-05-01T12:27:15.926Z,40.60
2019-05-01T12:29:44.205Z,36.43
2019-05-01T12:32:12.528Z,34.97
2019-05-01T12:34:41.155Z,35.97
2019-05-01T12:37:16.981Z,35.83
2019-05-01T12:39:45.995Z,34.33
2019-05-01T12:42:16.224Z,34.03
2019-05-01T12:44:46.110Z,36.33
2019-05-01T12:47:18.856Z,34.47
2019-05-01T12:49:49.148Z,35.90
2019-05-01T12:52:35.588Z,36.20
2019-05-01T12:55:07.291Z,32.20
2019-05-01T12:57:36.021Z,34.10
2019-05-01T13:00:09.399Z,32.80
2019-05-01T13:02:38.131Z,32.10
2019-05-01T13:05:10.139Z,28.47
2019-05-01T13:07:38.715Z,28.60
2019-05-01T13:10:07.298Z,27.30
2019-05-01T13:12:35.870Z,56.83
2019-05-01T13:15:07.074Z,62.07
2019-05-01T13:17:35.716Z,118.57
2019-05-01T13:20:06.243Z,100.60
2019-05-01T13:22:34.822Z,99.07
2019-05-01T13:25:04.530Z,90.47
2019-05-01T13:27:34.456Z,75.43
2019-05-01T13:30:20.895Z,68.27
2019-05-01T13:32:54.139Z,72.87
2019-05-01T13:35:22.435Z,59.23
2019-05-01T13:37:50.725Z,50.63
2019-05-01T13:40:19.470Z,48.53
2019-05-01T13:42:47.874Z,45.47
2019-05-01T13:45:18.649Z,40.50
2019-05-01T13:47:46.997Z,40.93
2019-05-01T13:50:15.575Z,122.17
2019-05-01T13:52:43.922Z,99.37
2019-05-01T13:55:12.438Z,104.97
2019-05-01T13:57:40.767Z,75.87
2019-05-01T14:00:09.274Z,75.53
2019-05-01T14:02:38.276Z,75.63
2019-05-01T14:05:06.608Z,71.83
2019-05-01T14:07:34.892Z,69.67
2019-05-01T14:10:03.362Z,74.87
2019-05-01T14:12:31.990Z,74.27
2019-05-01T14:15:00.742Z,69.60
2019-05-01T14:17:29.066Z,77.80
2019-05-01T14:19:59.613Z,99.93
2019-05-01T14:22:46.174Z,88.23
2019-05-01T14:25:15.197Z,85.63
2019-05-01T14:27:43.886Z,82.13
2019-05-01T14:30:12.302Z,86.73
2019-05-01T14:32:41.043Z,80.77
2019-05-01T14:35:10.550Z,80.30
2019-05-01T14:37:38.897Z,75.70
2019-05-01T14:40:07.313Z,74.20
2019-05-01T14:42:35.621Z,75.53
2019-05-01T14:45:08.113Z,72.73
2019-05-01T14:47:36.739Z,71.03
2019-05-01T14:50:08.422Z,71.80
2019-05-01T14:52:37.082Z,73.67
2019-05-01T14:55:06.904Z,77.27
2019-05-01T14:57:35.488Z,71.63
2019-05-01T15:00:06.220Z,70.43
2019-05-01T15:02:34.506Z,73.23
2019-05-01T15:05:03.027Z,72.90
2019-05-01T15:07:42.840Z,69.00
2019-05-01T15:10:01.979Z,62.47
2019-05-01T15:12:30.561Z,65.13
2019-05-01T15:15:06.955Z,58.97
2019-05-01T15:17:46.067Z,54.63
2019-05-01T15:20:14.691Z,52.67
2019-05-01T15:22:42.970Z,49.73
2019-05-01T15:25:11.590Z,50.87
2019-05-01T15:27:39.858Z,55.93
2019-05-01T15:30:08.342Z,54.30
2019-05-01T15:32:37.074Z,69.63
2019-05-01T15:35:06.256Z,86.63
2019-05-01T15:37:35.375Z,80.53
2019-05-01T15:40:07.818Z,93.73
2019-05-01T15:42:39.163Z,80.13
2019-05-01T15:45:07.986Z,80.90
2019-05-01T15:47:36.643Z,80.00
2019-05-01T15:50:07.974Z,76.87
2019-05-01T15:52:36.271Z,82.40
2019-05-01T15:55:07.111Z,74.10
2019-05-01T15:57:35.415Z,82.77
2019-05-01T16:00:06.728Z,80.97
2019-05-01T16:02:35.097Z,67.73
2019-05-01T16:05:04.616Z,75.20
2019-05-01T16:07:32.912Z,74.00
2019-05-01T16:10:01.275Z,71.47
2019-05-01T16:12:33.878Z,71.53
2019-05-01T16:15:02.434Z,69.43
2019-05-01T16:17:31.022Z,63.93
2019-05-01T16:19:59.945Z,64.67
2019-05-01T16:22:28.607Z,59.90
2019-05-01T16:24:57.290Z,125.93
2019-05-01T16:27:25.884Z,96.27
2019-05-01T16:29:54.269Z,114.00
2019-05-01T16:32:22.755Z,106.73
2019-05-01T16:34:52.964Z,99.07
2019-05-01T16:37:21.650Z,98.73
2019-05-01T16:40:00.911Z,87.27
2019-05-01T16:42:30.849Z,91.10
2019-05-01T16:44:59.471Z,87.00
2019-05-01T16:47:28.054Z,86.50
2019-05-01T16:49:56.359Z,84.67
2019-05-01T16:52:26.754Z,129.33
2019-05-01T16:54:59.503Z,135.67
2019-05-01T16:57:25.613Z,110.03
2019-05-01T16:59:53.910Z,115.33
2019-05-01T17:02:33.274Z,109.20
2019-05-01T17:05:06.362Z,98.10
2019-05-01T17:07:36.324Z,92.40
2019-05-01T17:10:26.187Z,91.67
2019-05-01T17:12:56.169Z,85.10
2019-05-01T17:15:26.406Z,79.80
2019-05-01T17:17:55.112Z,77.10
2019-05-01T17:20:24.494Z,84.67
2019-05-01T17:22:52.970Z,92.37
2019-05-01T17:25:21.565Z,110.80
2019-05-01T17:27:49.854Z,90.97
2019-05-01T17:30:25.462Z,92.43
2019-05-01T17:33:00.695Z,88.03
2019-05-01T17:35:30.385Z,92.10
2019-05-01T17:37:58.670Z,80.27
2019-05-01T17:40:27.315Z,88.67
2019-05-01T17:42:56.103Z,81.90
2019-05-01T17:45:24.669Z,79.93
2019-05-01T17:47:57.804Z,75.47
2019-05-01T17:50:23.271Z,72.43
2019-05-01T17:52:51.946Z,68.70
2019-05-01T17:55:20.242Z,68.40
2019-05-01T17:57:48.646Z,59.20
2019-05-01T18:00:33.878Z,58.97
2019-05-01T18:03:20.806Z,62.77
2019-05-01T18:06:07.029Z,69.27
2019-05-01T18:08:35.651Z,59.40
2019-05-01T18:11:04.277Z,62.13
2019-05-01T18:13:32.672Z,63.27
2019-05-01T18:16:01.423Z,68.07
2019-05-01T18:18:29.735Z,73.33
2019-05-01T18:20:58.022Z,74.40
2019-05-01T18:23:30.663Z,60.27
2019-05-01T18:26:04.854Z,64.63
2019-05-01T18:28:35.561Z,61.43
2019-05-01T18:31:05.563Z,64.20
2019-05-01T18:33:33.874Z,58.20
2019-05-01T18:36:02.160Z,74.50
2019-05-01T18:38:32.104Z,72.30
2019-05-01T18:41:08.222Z,93.13
2019-05-01T18:43:36.848Z,86.83
2019-05-01T18:46:08.212Z,91.00
2019-05-01T18:48:36.570Z,80.27
2019-05-01T18:51:04.912Z,73.37
2019-05-01T18:53:33.648Z,72.53
2019-05-01T18:56:05.600Z,69.07
2019-05-01T18:58:32.177Z,67.47
2019-05-01T19:01:04.224Z,69.53
2019-05-01T19:03:36.999Z,65.57
2019-05-01T19:06:03.776Z,69.87
2019-05-01T19:08:32.122Z,63.73
2019-05-01T19:11:11.771Z,65.93
2019-05-01T19:13:30.905Z,65.47
2019-05-01T19:16:03.252Z,63.23
2019-05-01T19:18:29.374Z,60.83
2019-05-01T19:20:59.613Z,59.43
2019-05-01T19:23:29.854Z,58.33
2019-05-01T19:26:04.985Z,57.47
2019-05-01T19:28:28.818Z,57.50
2019-05-01T19:30:57.441Z,57.77
2019-05-01T19:33:25.856Z,52.13
2019-05-01T19:35:54.519Z,44.80
2019-05-01T19:38:23.232Z,48.90
2019-05-01T19:40:51.924Z,52.20
2019-05-01T19:43:20.668Z,50.13
2019-05-01T19:45:48.998Z,53.60
2019-05-01T19:48:17.627Z,47.47
2019-05-01T19:50:48.401Z,50.20
2019-05-01T19:53:16.127Z,50.13
2019-05-01T19:55:45.103Z,80.73
2019-05-01T19:58:14.575Z,62.83
2019-05-01T20:00:52.973Z,79.33
2019-05-01T20:03:21.631Z,82.80
2019-05-01T20:05:50.203Z,74.30
2019-05-01T20:08:18.990Z,69.73
2019-05-01T20:10:47.298Z,65.83
2019-05-01T20:13:15.863Z,63.83
2019-05-01T20:15:44.458Z,78.73
2019-05-01T20:18:13.135Z,79.83
2019-05-01T20:20:41.716Z,77.40
2019-05-01T20:23:10.050Z,80.33
2019-05-01T20:25:38.687Z,97.10
2019-05-01T20:28:07.415Z,89.50
2019-05-01T20:30:36.024Z,88.47
2019-05-01T20:33:08.003Z,90.93
2019-05-01T20:35:35.181Z,89.20
2019-05-01T20:38:03.562Z,104.20
2019-05-01T20:40:32.243Z,82.10
2019-05-01T20:43:01.055Z,86.40
2019-05-01T20:45:30.838Z,86.27
2019-05-01T20:47:59.303Z,83.90
2019-05-01T20:50:27.587Z,86.03
2019-05-01T20:52:56.385Z,88.00
2019-05-01T20:55:25.261Z,80.37
2019-05-01T20:57:55.483Z,77.40
2019-05-01T21:00:25.711Z,74.83
2019-05-01T21:02:54.302Z,75.03
2019-05-01T21:05:24.489Z,78.23
2019-05-01T21:08:11.018Z,71.33
2019-05-01T21:10:56.072Z,65.97
2019-05-01T21:13:25.101Z,69.73
2019-05-01T21:15:56.376Z,84.37
2019-05-01T21:18:25.949Z,112.77
2019-05-01T21:20:54.183Z,105.77
2019-05-01T21:23:23.295Z,105.07
2019-05-01T21:25:53.733Z,102.67
2019-05-01T21:28:23.866Z,98.33
2019-05-01T21:30:54.223Z,98.07
2019-05-01T21:33:23.742Z,90.57
2019-05-01T21:35:53.378Z,92.13
2019-05-01T21:38:22.210Z,91.37
2019-05-01T21:40:50.975Z,91.03
2019-05-01T21:43:19.278Z,92.87
2019-05-01T21:45:47.588Z,94.03
2019-05-01T21:48:16.208Z,89.03
2019-05-01T21:50:44.516Z,87.87
2019-05-01T21:53:13.040Z,79.43
2019-05-01T21:55:41.646Z,72.37
2019-05-01T21:58:09.960Z,74.70
2019-05-01T22:00:39.989Z,69.93
2019-05-01T22:03:08.589Z,69.50
2019-05-01T22:05:39.665Z,69.73
2019-05-01T22:08:07.241Z,65.67
2019-05-01T22:10:35.791Z,76.33
2019-05-01T22:13:04.602Z,70.57
2019-05-01T22:15:47.265Z,33.80
2019-05-01T22:18:15.607Z,21.87
2019-05-01T22:20:48.878Z,19.83
2019-05-01T22:23:24.846Z,20.07
2019-05-01T22:25:54.781Z,16.93
2019-05-01T22:28:24.987Z,17.07
2019-05-01T22:30:55.210Z,16.33
2019-05-01T22:33:23.790Z,16.37
2019-05-01T22:35:53.373Z,14.50
2019-05-01T22:38:23.851Z,14.73
2019-05-01T22:41:06.655Z,17.90
2019-05-01T22:43:30.121Z,14.80
2019-05-01T22:46:01.754Z,15.23
2019-05-01T22:48:28.412Z,15.83
2019-05-01T22:51:00.668Z,16.00
2019-05-01T22:53:28.966Z,16.40
2019-05-01T22:56:02.117Z,16.13
2019-05-01T22:58:27.568Z,16.53
2019-05-01T23:00:57.505Z,16.40
2019-05-01T23:03:27.442Z,16.17
2019-05-01T23:05:56.064Z,15.20
2019-05-01T23:08:24.346Z,17.40
2019-05-01T23:10:52.935Z,20.40
2019-05-01T23:13:21.511Z,15.47
2019-05-01T23:15:51.443Z,18.13
2019-05-01T23:18:20.009Z,16.77
2019-05-01T23:20:48.586Z,16.93
2019-05-01T23:23:16.947Z,15.30
2019-05-01T23:25:45.551Z,19.63
2019-05-01T23:28:13.895Z,14.40
2019-05-01T23:30:42.346Z,14.17
2019-05-01T23:33:10.638Z,13.67
2019-05-01T23:35:39.267Z,13.07
2019-05-01T23:38:07.854Z,13.13
2019-05-01T23:40:36.200Z,11.97
2019-05-01T23:43:04.627Z,12.43
2019-05-01T23:45:32.915Z,11.70
2019-05-01T23:48:01.486Z,14.87
2019-05-01T23:50:29.766Z,12.10
2019-05-01T23:52:58.061Z,12.13
2019-05-01T23:55:26.337Z,10.73
2019-05-01T23:57:54.899Z,11.80
